createdAt,value
2018-11-14T00:00:27.887Z,8.80
2018-11-14T00:02:55.743Z,8.80
2018-11-14T00:05:23.311Z,8.90
2018-11-14T00:07:51.227Z,9.00
2018-11-14T00:10:19.547Z,9.00
2018-11-14T00:12:46.799Z,9.10
2018-11-14T00:15:16.317Z,9.10
2018-11-14T00:17:44.891Z,9.10
2018-11-14T00:20:12.572Z,9.10
2018-11-14T00:22:41.068Z,9.10
2018-11-14T00:25:08.463Z,9.10
2018-11-14T00:41:19.763Z,9.20
2018-11-14T00:43:47.319Z,9.10
2018-11-14T00:46:14.680Z,9.10
2018-11-14T00:48:42.019Z,9.10
2018-11-14T00:51:09.374Z,9.10
2018-11-14T00:53:36.820Z,9.10
2018-11-14T00:56:04.299Z,9.10
2018-11-14T00:58:31.648Z,9.10
2018-11-14T01:00:59.024Z,9.10
2018-11-14T01:03:26.372Z,9.10
2018-11-14T01:05:53.830Z,9.10
2018-11-14T01:08:21.253Z,9.10
2018-11-14T01:10:48.611Z,9.10
2018-11-14T01:13:15.990Z,9.10
2018-11-14T01:15:43.474Z,9.00
2018-11-14T01:18:10.872Z,9.00
2018-11-14T01:20:38.263Z,9.00
2018-11-14T01:23:05.824Z,9.00
2018-11-14T01:25:33.281Z,8.90
2018-11-14T01:28:00.614Z,8.80
2018-11-14T01:30:28.102Z,8.80
2018-11-14T01:32:55.476Z,8.70
2018-11-14T01:35:23.027Z,8.60
2018-11-14T01:37:50.430Z,8.60
2018-11-14T01:40:19.124Z,8.50
2018-11-14T01:42:47.677Z,8.40
2018-11-14T01:45:15.087Z,8.40
2018-11-14T01:47:42.559Z,8.40
2018-11-14T01:50:10.214Z,8.40
2018-11-14T01:52:37.894Z,8.30
2018-11-14T01:55:05.865Z,8.30
2018-11-14T01:57:33.225Z,8.30
2018-11-14T02:00:00.631Z,8.30
2018-11-14T02:02:28.100Z,8.30
2018-11-14T02:04:55.462Z,8.20
2018-11-14T02:07:22.820Z,8.20
2018-11-14T02:09:50.808Z,8.20
2018-11-14T02:12:18.235Z,8.20
2018-11-14T02:14:45.684Z,8.10
2018-11-14T02:17:13.201Z,8.10
2018-11-14T02:19:40.544Z,8.00
2018-11-14T02:22:08.202Z,8.00
2018-11-14T02:24:35.551Z,7.90
2018-11-14T02:27:03.017Z,7.90
2018-11-14T02:29:30.452Z,7.90
2018-11-14T02:31:57.814Z,7.90
2018-11-14T02:34:25.181Z,7.80
2018-11-14T02:36:52.858Z,7.90
2018-11-14T02:39:20.673Z,7.80
2018-11-14T02:41:48.145Z,7.80
2018-11-14T02:44:15.497Z,7.70
2018-11-14T02:46:42.861Z,7.80
2018-11-14T02:49:11.116Z,7.70
2018-11-14T02:51:38.481Z,7.70
2018-11-14T02:54:05.826Z,7.70
2018-11-14T02:56:33.186Z,7.60
2018-11-14T02:59:00.645Z,7.60
2018-11-14T03:01:28.124Z,7.50
2018-11-14T03:03:55.547Z,7.60
2018-11-14T03:06:22.924Z,7.50
2018-11-14T03:08:50.376Z,7.50
2018-11-14T03:11:17.736Z,7.60
2018-11-14T03:13:45.188Z,7.60
2018-11-14T03:16:12.561Z,7.50
2018-11-14T03:18:39.916Z,7.50
2018-11-14T03:21:07.268Z,7.50
2018-11-14T03:23:34.635Z,7.50
2018-11-14T03:26:01.996Z,7.50
2018-11-14T03:28:30.244Z,7.40
2018-11-14T03:30:57.708Z,7.40
2018-11-14T03:33:25.149Z,7.40
2018-11-14T03:35:58.069Z,7.40
2018-11-14T03:38:25.457Z,7.40
2018-11-14T03:40:52.816Z,7.40
2018-11-14T03:43:20.468Z,7.40
2018-11-14T03:45:47.887Z,7.50
2018-11-14T03:48:15.231Z,7.50
2018-11-14T03:50:42.590Z,7.50
2018-11-14T03:53:09.936Z,7.40
2018-11-14T03:55:37.331Z,7.40
2018-11-14T03:58:04.679Z,7.40
2018-11-14T04:00:32.236Z,7.40
2018-11-14T04:02:59.697Z,7.40
2018-11-14T04:05:27.129Z,7.30
2018-11-14T04:07:54.528Z,7.40
2018-11-14T04:10:21.881Z,7.40
2018-11-14T04:12:49.252Z,7.30
2018-11-14T04:15:16.640Z,7.20
2018-11-14T04:17:43.993Z,7.20
2018-11-14T04:20:13.641Z,7.20
2018-11-14T04:22:41.236Z,7.20
2018-11-14T04:25:09.383Z,7.20
2018-11-14T04:27:36.812Z,7.10
2018-11-14T04:30:05.429Z,7.10
2018-11-14T04:32:32.792Z,7.00
2018-11-14T04:35:00.140Z,7.10
2018-11-14T04:37:27.571Z,7.00
2018-11-14T04:39:54.932Z,7.10
2018-11-14T04:42:22.279Z,7.10
2018-11-14T04:44:49.685Z,7.00
2018-11-14T04:47:17.027Z,7.10
2018-11-14T04:49:44.385Z,7.10
2018-11-14T04:52:11.801Z,7.00
2018-11-14T04:54:39.249Z,7.00
2018-11-14T04:57:06.730Z,6.90
2018-11-14T04:59:34.076Z,6.80
2018-11-14T05:02:01.427Z,6.80
2018-11-14T05:04:28.811Z,6.70
2018-11-14T05:06:56.172Z,6.80
2018-11-14T05:09:23.524Z,6.80
2018-11-14T05:11:51.002Z,6.80
2018-11-14T05:14:18.899Z,6.80
2018-11-14T05:16:46.257Z,6.90
2018-11-14T05:19:13.717Z,6.80
2018-11-14T05:21:41.188Z,6.80
2018-11-14T05:24:08.651Z,6.80
2018-11-14T05:26:36.120Z,6.80
2018-11-14T05:29:03.548Z,6.80
2018-11-14T05:31:30.895Z,6.90
2018-11-14T05:33:58.301Z,6.90
2018-11-14T05:36:25.651Z,6.90
2018-11-14T05:38:53.028Z,6.80
2018-11-14T05:41:20.436Z,6.80
2018-11-14T05:43:47.835Z,6.80
2018-11-14T05:46:15.243Z,6.80
2018-11-14T05:48:42.796Z,6.80
2018-11-14T05:51:10.160Z,6.80
2018-11-14T05:53:37.628Z,6.80
2018-11-14T05:56:04.981Z,6.80
2018-11-14T05:58:32.348Z,6.80
2018-11-14T06:00:59.780Z,6.70
2018-11-14T06:15:20.538Z,6.80
2018-11-14T07:00:46.779Z,6.90
2018-11-14T07:08:46.511Z,7.10
2018-11-14T07:14:00.037Z,7.20
2018-11-14T07:16:32.038Z,7.20
2018-11-14T07:28:11.843Z,7.30
2018-11-14T07:41:31.000Z,7.80
2018-11-14T07:43:58.456Z,7.90
2018-11-14T07:46:27.164Z,7.90
2018-11-14T07:48:54.889Z,8.00
2018-11-14T07:51:22.228Z,8.00
2018-11-14T07:56:41.054Z,8.10
2018-11-14T08:08:33.665Z,8.30
2018-11-14T08:11:07.627Z,8.30
2018-11-14T08:13:36.925Z,8.30
2018-11-14T08:16:10.737Z,8.40
2018-11-14T08:18:38.201Z,8.50
2018-11-14T08:23:41.493Z,8.60
2018-11-14T08:26:17.841Z,8.70
2018-11-14T08:28:53.226Z,8.80
2018-11-14T08:31:20.767Z,8.90
2018-11-14T08:33:55.391Z,8.90
2018-11-14T08:40:03.684Z,9.00
2018-11-14T08:42:31.195Z,9.10
2018-11-14T08:44:58.740Z,9.10
2018-11-14T08:47:26.418Z,9.20
2018-11-14T08:49:54.032Z,9.30
2018-11-14T08:52:21.590Z,9.40
2018-11-14T08:54:49.069Z,9.50
2018-11-14T08:57:16.560Z,9.60
2018-11-14T08:59:44.115Z,9.50
2018-11-14T09:02:19.604Z,9.50
2018-11-14T09:04:47.289Z,9.50
2018-11-14T09:07:14.861Z,9.60
2018-11-14T09:09:44.453Z,9.70
2018-11-14T09:12:23.649Z,9.80
2018-11-14T09:20:40.140Z,9.90
2018-11-14T09:23:14.326Z,10.10
2018-11-14T09:42:08.692Z,10.60
2018-11-14T09:44:36.662Z,10.40
2018-11-14T09:52:52.480Z,10.50
2018-11-14T10:38:06.668Z,11.00
2018-11-14T10:40:57.738Z,11.00
2018-11-14T10:43:40.276Z,10.80
2018-11-14T10:46:07.658Z,10.70
2018-11-14T12:06:22.768Z,11.30
2018-11-14T12:33:33.453Z,12.10
2018-11-14T12:38:58.927Z,11.80
2018-11-14T12:41:27.301Z,11.70
2018-11-14T12:44:03.626Z,11.70
2018-11-14T12:46:36.512Z,11.60
2018-11-14T12:53:29.310Z,11.40
2018-11-14T12:55:59.765Z,11.40
2018-11-14T12:58:38.197Z,11.30
2018-11-14T13:01:12.974Z,11.30
2018-11-14T13:03:47.572Z,11.40
2018-11-14T13:06:17.686Z,11.50
2018-11-14T13:08:46.181Z,11.50
2018-11-14T13:11:17.867Z,11.50
2018-11-14T13:25:18.659Z,11.20
2018-11-14T13:27:47.250Z,11.30
2018-11-14T13:30:18.481Z,11.30
2018-11-14T13:32:46.814Z,11.30
2018-11-14T13:35:15.398Z,11.30
2018-11-14T13:37:43.516Z,11.10
2018-11-14T13:40:11.404Z,11.00
2018-11-14T13:42:41.542Z,11.10
2018-11-14T13:45:15.200Z,11.00
2018-11-14T13:47:48.157Z,11.00
2018-11-14T13:50:19.451Z,11.00
2018-11-14T14:01:11.127Z,10.80
2018-11-14T14:03:41.131Z,10.80
2018-11-14T14:22:44.678Z,10.70
2018-11-14T14:25:13.436Z,10.70
2018-11-14T14:30:31.980Z,10.60
2018-11-14T14:32:59.400Z,10.50
2018-11-14T14:35:29.468Z,10.40
2018-11-14T14:40:59.254Z,10.30
2018-11-14T14:43:33.453Z,10.10
2018-11-14T14:46:01.378Z,10.10
2018-11-14T14:48:29.903Z,10.00
2018-11-14T14:50:57.930Z,9.90
2018-11-14T14:53:25.538Z,9.80
2018-11-14T14:55:53.007Z,9.80
2018-11-14T15:27:21.241Z,9.20
2018-11-14T15:29:51.741Z,9.00
2018-11-14T15:32:20.223Z,9.00
2018-11-14T15:34:52.457Z,8.90
2018-11-14T15:37:30.128Z,8.90
2018-11-14T15:42:56.029Z,8.90
2018-11-14T15:48:15.169Z,8.80
2018-11-14T15:59:30.746Z,8.80
2018-11-14T16:10:15.641Z,8.20
2018-11-14T16:12:46.219Z,8.20
2018-11-14T16:15:36.779Z,8.10
2018-11-14T16:20:45.124Z,8.10
2018-11-14T16:23:13.248Z,8.10
2018-11-14T16:25:41.004Z,8.10
2018-11-14T16:28:08.507Z,8.20
2018-11-14T16:36:49.938Z,8.40
2018-11-14T16:44:49.546Z,8.60
2018-11-14T16:53:13.062Z,8.50
2018-11-14T17:03:57.100Z,8.50
2018-11-14T17:09:38.179Z,8.30
2018-11-14T17:12:06.049Z,8.30
2018-11-14T17:14:40.709Z,8.30
2018-11-14T17:23:16.552Z,8.20
2018-11-14T17:42:10.339Z,7.70
2018-11-14T17:44:37.786Z,7.70
2018-11-14T17:47:22.926Z,7.70
2018-11-14T17:49:50.449Z,7.70
2018-11-14T17:52:18.372Z,7.60
2018-11-14T18:03:22.260Z,7.60
2018-11-14T18:05:55.693Z,7.70
2018-11-14T18:08:35.993Z,7.70
2018-11-14T18:14:12.083Z,7.70
2018-11-14T18:16:39.551Z,7.70
2018-11-14T18:19:13.357Z,7.70
2018-11-14T18:21:49.312Z,7.70
2018-11-14T18:24:18.305Z,7.70
2018-11-14T18:27:04.820Z,7.80
2018-11-14T18:29:32.900Z,7.80
2018-11-14T18:48:59.392Z,8.00
2018-11-14T18:51:28.312Z,8.00
2018-11-14T18:53:56.321Z,8.00
2018-11-14T18:56:32.754Z,8.00
2018-11-14T18:59:05.673Z,8.00
2018-11-14T19:01:33.174Z,8.00
2018-11-14T19:04:00.668Z,7.90
2018-11-14T19:06:34.370Z,7.90
2018-11-14T19:29:43.728Z,7.90
2018-11-14T19:35:43.591Z,7.80
2018-11-14T19:38:15.525Z,7.90
2018-11-14T19:44:11.622Z,7.90
2018-11-14T19:52:17.578Z,8.10
2018-11-14T19:54:44.969Z,8.10
2018-11-14T19:58:25.278Z,8.20
2018-11-14T20:09:11.945Z,8.20
2018-11-14T20:18:55.423Z,8.20
2018-11-14T20:21:22.756Z,8.20
2018-11-14T20:23:50.170Z,8.20
2018-11-14T20:26:17.656Z,8.30
2018-11-14T20:28:44.976Z,8.30
2018-11-14T20:31:12.436Z,8.30
2018-11-14T20:33:39.992Z,8.30
2018-11-14T20:36:07.421Z,8.30
2018-11-14T20:38:34.938Z,8.30
2018-11-14T20:41:02.374Z,8.20
2018-11-14T20:43:29.928Z,8.20
2018-11-14T20:45:57.347Z,8.20
2018-11-14T20:48:24.716Z,8.10
2018-11-14T20:50:52.103Z,8.10
2018-11-14T20:53:19.659Z,8.10
2018-11-14T20:55:47.129Z,8.00
2018-11-14T20:58:14.629Z,8.00
2018-11-14T21:00:42.898Z,8.00
2018-11-14T21:03:11.212Z,8.00
2018-11-14T21:05:38.716Z,8.00
2018-11-14T21:08:06.349Z,8.00
2018-11-14T21:10:34.631Z,8.10
2018-11-14T21:13:02.836Z,8.10
2018-11-14T21:15:32.713Z,8.10
2018-11-14T21:18:01.013Z,8.10
2018-11-14T21:20:29.306Z,8.10
2018-11-14T21:22:56.733Z,8.10
2018-11-14T21:25:24.812Z,8.10
2018-11-14T21:27:52.699Z,8.10
2018-11-14T21:30:21.259Z,8.10
2018-11-14T21:32:48.626Z,8.10
2018-11-14T21:35:17.811Z,8.10
2018-11-14T21:37:46.576Z,8.10
2018-11-14T21:40:14.165Z,8.10
2018-11-14T21:42:41.528Z,8.10
2018-11-14T21:45:10.096Z,8.00
2018-11-14T21:47:43.036Z,8.00
2018-11-14T21:50:10.662Z,8.10
2018-11-14T21:52:38.197Z,8.10
2018-11-14T21:55:06.004Z,8.10
2018-11-14T21:57:33.416Z,8.10
2018-11-14T22:00:00.864Z,8.10
2018-11-14T22:02:28.131Z,8.10
2018-11-14T22:04:55.682Z,8.10
2018-11-14T22:07:23.124Z,8.10
2018-11-14T22:09:50.837Z,8.00
2018-11-14T22:12:18.982Z,8.00
2018-11-14T22:14:46.527Z,8.10
2018-11-14T22:17:14.087Z,8.10
2018-11-14T22:19:41.656Z,8.10
2018-11-14T22:22:08.982Z,8.00
2018-11-14T22:24:36.360Z,8.10
2018-11-14T22:27:03.915Z,8.10
2018-11-14T22:29:31.521Z,8.10
2018-11-14T22:31:59.072Z,8.10
2018-11-14T22:34:26.502Z,8.10
2018-11-14T22:36:53.935Z,8.10
2018-11-14T22:39:21.297Z,8.10
2018-11-14T22:41:48.664Z,8.10
2018-11-14T22:44:16.361Z,8.10
2018-11-14T22:46:43.716Z,8.10
2018-11-14T22:49:11.085Z,8.10
2018-11-14T22:51:38.480Z,8.20
2018-11-14T22:54:05.856Z,8.20
2018-11-14T22:56:33.300Z,8.20
2018-11-14T22:59:00.768Z,8.20
2018-11-14T23:01:28.214Z,8.20
2018-11-14T23:03:55.616Z,8.20
2018-11-14T23:06:23.036Z,8.20
2018-11-14T23:08:50.496Z,8.30
2018-11-14T23:11:17.985Z,8.30
2018-11-14T23:13:45.536Z,8.30
2018-11-14T23:16:12.950Z,8.30
2018-11-14T23:18:40.320Z,8.30
2018-11-14T23:21:07.666Z,8.30
2018-11-14T23:23:35.132Z,8.30
2018-11-14T23:26:02.604Z,8.30
2018-11-14T23:28:30.537Z,8.30
2018-11-14T23:30:57.929Z,8.30
2018-11-14T23:33:25.358Z,8.30
2018-11-14T23:35:52.735Z,8.30
2018-11-14T23:38:20.216Z,8.30
2018-11-14T23:40:47.576Z,8.30
2018-11-14T23:43:15.029Z,8.30
2018-11-14T23:45:43.353Z,8.20
2018-11-14T23:48:10.832Z,8.20
2018-11-14T23:50:38.298Z,8.20
2018-11-14T23:53:05.738Z,8.20
2018-11-14T23:55:33.126Z,8.10
2018-11-14T23:58:00.699Z,8.10
